createdAt,value
2023-02-15T00:01:09.461Z,29.40
2023-02-15T00:06:14.744Z,23.53
2023-02-15T00:11:40.661Z,24.67
2023-02-15T00:16:47.858Z,28.45
2023-02-15T00:21:53.161Z,24.08
2023-02-15T00:27:01.102Z,28.50
2023-02-15T00:32:07.156Z,26.70
2023-02-15T00:37:12.484Z,28.08
2023-02-15T00:42:20.319Z,29.27
2023-02-15T00:47:26.344Z,28.02
2023-02-15T00:52:31.631Z,31.23
2023-02-15T00:57:39.572Z,30.73
2023-02-15T01:02:44.865Z,30.38
2023-02-15T01:07:50.294Z,30.58
2023-02-15T01:12:58.773Z,30.67
2023-02-15T01:18:05.835Z,27.65
2023-02-15T01:23:12.131Z,28.90
2023-02-15T01:28:20.595Z,32.35
2023-02-15T01:33:25.913Z,30.13
2023-02-15T01:38:31.162Z,31.65
2023-02-15T01:43:47.061Z,29.40
2023-02-15T01:48:56.356Z,29.97
2023-02-15T01:54:08.680Z,28.08
2023-02-15T01:59:22.285Z,32.03
2023-02-15T02:04:33.687Z,30.17
2023-02-15T02:09:40.016Z,30.13
2023-02-15T02:14:49.274Z,32.07
2023-02-15T02:20:29.565Z,24.90
2023-02-15T02:26:02.000Z,28.88
2023-02-15T02:31:39.521Z,28.15
2023-02-15T02:36:53.631Z,28.67
2023-02-15T02:42:04.721Z,29.80
2023-02-15T02:47:13.963Z,30.65
2023-02-15T02:52:47.018Z,30.52
2023-02-15T02:57:57.388Z,32.47
2023-02-15T03:03:07.184Z,33.53
2023-02-15T03:08:22.746Z,30.23
2023-02-15T03:13:28.788Z,29.95
2023-02-15T03:18:38.433Z,29.95
2023-02-15T03:23:46.656Z,29.77
2023-02-15T03:28:56.581Z,38.13
2023-02-15T03:34:05.862Z,33.17
2023-02-15T03:39:21.054Z,28.17
2023-02-15T03:44:32.254Z,34.33
2023-02-15T03:49:44.916Z,29.02
2023-02-15T03:54:53.814Z,31.75
2023-02-15T04:00:11.803Z,34.13
2023-02-15T04:05:17.335Z,30.05
2023-02-15T04:10:37.653Z,32.00
2023-02-15T04:15:55.526Z,30.90
2023-02-15T04:21:13.316Z,30.42
2023-02-15T04:26:22.836Z,31.90
2023-02-15T04:31:28.406Z,32.97
2023-02-15T04:36:33.747Z,34.33
2023-02-15T04:41:42.053Z,35.05
2023-02-15T04:46:47.419Z,28.70
2023-02-15T04:51:52.895Z,32.47
2023-02-15T04:57:00.927Z,32.17
2023-02-15T05:02:06.871Z,37.40
2023-02-15T05:07:12.167Z,32.03
2023-02-15T05:12:20.119Z,33.22
2023-02-15T05:17:25.336Z,31.03
2023-02-15T05:22:30.708Z,36.45
2023-02-15T05:27:51.116Z,35.08
2023-02-15T05:32:56.521Z,28.73
2023-02-15T05:38:01.884Z,34.70
2023-02-15T05:43:10.292Z,33.93
2023-02-15T05:48:15.645Z,36.67
2023-02-15T05:53:23.776Z,33.38
2023-02-15T05:58:35.203Z,33.90
2023-02-15T06:03:40.869Z,33.20
2023-02-15T06:08:46.638Z,33.57
2023-02-15T06:13:54.655Z,33.08
2023-02-15T06:19:00.231Z,33.80
2023-02-15T06:24:05.742Z,31.50
2023-02-15T06:29:13.660Z,30.90
2023-02-15T06:34:19.423Z,30.30
2023-02-15T06:39:24.749Z,31.90
2023-02-15T06:44:32.616Z,35.28
2023-02-15T06:49:38.007Z,35.35
2023-02-15T06:54:45.202Z,32.92
2023-02-15T06:59:54.002Z,34.73
2023-02-15T07:05:03.951Z,37.35
2023-02-15T07:10:10.639Z,43.45
2023-02-15T07:15:21.779Z,36.90
2023-02-15T07:20:27.762Z,36.65
2023-02-15T07:25:33.144Z,35.30
2023-02-15T07:30:41.395Z,35.72
2023-02-15T07:35:51.413Z,33.08
2023-02-15T07:41:02.136Z,30.42
2023-02-15T07:46:12.737Z,29.67
2023-02-15T07:51:18.565Z,28.03
2023-02-15T07:56:23.990Z,28.98
2023-02-15T08:01:34.166Z,31.92
2023-02-15T08:06:39.839Z,30.65
2023-02-15T08:11:45.557Z,29.85
2023-02-15T08:16:55.968Z,26.50
2023-02-15T08:22:03.175Z,27.00
2023-02-15T08:27:09.789Z,27.80
2023-02-15T08:32:19.506Z,26.27
2023-02-15T08:37:24.916Z,28.40
2023-02-15T08:42:30.180Z,26.60
2023-02-15T08:47:38.067Z,26.95
2023-02-15T08:52:43.403Z,22.13
2023-02-15T08:57:49.169Z,24.20
2023-02-15T09:02:57.208Z,28.40
2023-02-15T09:08:02.713Z,26.33
2023-02-15T09:13:07.932Z,27.90
2023-02-15T09:18:18.106Z,21.75
2023-02-15T09:23:27.215Z,21.00
2023-02-15T09:28:33.625Z,24.25
2023-02-15T09:33:42.691Z,20.70
2023-02-15T09:38:48.620Z,24.48
2023-02-15T09:44:05.283Z,22.55
2023-02-15T09:49:24.933Z,25.70
2023-02-15T09:55:01.416Z,21.42
2023-02-15T10:00:14.757Z,17.43
2023-02-15T10:05:36.378Z,23.90
2023-02-15T10:10:49.640Z,22.42
2023-02-15T10:16:12.572Z,20.00
2023-02-15T10:21:30.765Z,18.98
2023-02-15T10:26:45.360Z,21.17
2023-02-15T10:31:54.348Z,19.33
2023-02-15T10:37:33.004Z,19.63
2023-02-15T10:42:51.411Z,25.43
2023-02-15T10:48:20.434Z,23.02
2023-02-15T10:54:01.557Z,20.00
2023-02-15T10:59:29.867Z,17.20
2023-02-15T11:04:47.306Z,20.58
2023-02-15T11:10:01.998Z,17.07
2023-02-15T11:15:19.604Z,16.10
2023-02-15T11:20:29.535Z,17.17
2023-02-15T11:25:39.260Z,17.27
2023-02-15T11:30:48.038Z,16.05
2023-02-15T11:35:57.485Z,15.87
2023-02-15T11:41:09.292Z,15.77
2023-02-15T11:46:16.727Z,16.30
2023-02-15T11:51:24.521Z,18.10
2023-02-15T11:56:36.890Z,17.30
2023-02-15T12:01:46.473Z,20.67
2023-02-15T12:07:02.377Z,17.83
2023-02-15T12:12:30.141Z,13.73
2023-02-15T12:17:38.544Z,19.40
2023-02-15T12:22:52.886Z,16.75
2023-02-15T12:28:00.874Z,16.03
2023-02-15T12:33:17.794Z,15.70
2023-02-15T12:38:28.821Z,16.33
2023-02-15T12:43:40.003Z,19.77
2023-02-15T12:48:45.435Z,13.95
2023-02-15T12:53:50.824Z,17.07
2023-02-15T12:59:08.878Z,15.10
2023-02-15T13:04:25.786Z,16.93
2023-02-15T13:09:41.765Z,16.40
2023-02-15T13:14:55.821Z,17.45
2023-02-15T13:20:08.462Z,17.33
2023-02-15T13:25:20.928Z,16.23
2023-02-15T13:30:36.249Z,14.40
2023-02-15T13:35:46.504Z,16.40
2023-02-15T13:40:58.105Z,17.50
2023-02-15T13:46:17.678Z,16.67
2023-02-15T13:51:29.955Z,14.93
2023-02-15T13:56:46.896Z,15.77
2023-02-15T14:02:01.530Z,15.63
2023-02-15T14:07:29.644Z,14.77
2023-02-15T14:12:53.436Z,14.13
2023-02-15T14:18:10.682Z,14.30
2023-02-15T14:23:31.909Z,15.83
2023-02-15T14:28:45.728Z,12.85
2023-02-15T14:33:58.812Z,20.73
2023-02-15T14:39:33.574Z,16.35
2023-02-15T14:44:43.993Z,17.75
2023-02-15T14:49:52.159Z,17.20
2023-02-15T14:55:03.008Z,18.02
2023-02-15T15:00:34.640Z,16.67
2023-02-15T15:05:52.977Z,16.10
2023-02-15T15:11:41.095Z,15.65
2023-02-15T15:17:01.738Z,13.57
2023-02-15T15:22:07.741Z,18.17
2023-02-15T15:27:46.153Z,17.05
2023-02-15T15:33:02.801Z,16.27
2023-02-15T15:38:31.225Z,20.23
2023-02-15T15:44:06.379Z,16.17
2023-02-15T15:49:18.573Z,16.67
2023-02-15T15:54:26.010Z,16.65
2023-02-15T15:59:34.085Z,18.20
2023-02-15T16:04:42.491Z,16.70
2023-02-15T16:09:58.030Z,18.75
2023-02-15T16:15:08.487Z,17.10
2023-02-15T16:20:22.856Z,16.42
2023-02-15T16:25:37.659Z,19.20
2023-02-15T16:30:45.449Z,17.70
2023-02-15T16:36:04.330Z,15.70
2023-02-15T16:41:09.994Z,14.83
2023-02-15T16:46:21.722Z,19.00
2023-02-15T16:51:32.402Z,16.83
2023-02-15T16:56:40.413Z,14.73
2023-02-15T17:01:48.366Z,19.58
2023-02-15T17:07:07.453Z,20.23
2023-02-15T17:12:13.166Z,17.23
2023-02-15T17:17:19.275Z,16.17
2023-02-15T17:22:30.513Z,17.90
2023-02-15T17:27:36.510Z,16.10
2023-02-15T17:32:42.182Z,16.13
2023-02-15T17:37:51.560Z,17.20
2023-02-15T17:42:57.576Z,20.45
2023-02-15T17:48:07.257Z,17.70
2023-02-15T17:53:16.164Z,19.88
2023-02-15T17:58:23.696Z,22.48
2023-02-15T18:03:50.270Z,19.63
2023-02-15T18:09:12.612Z,21.50
2023-02-15T18:14:19.784Z,17.63
2023-02-15T18:19:26.737Z,19.05
2023-02-15T18:24:34.978Z,19.00
2023-02-15T18:29:40.665Z,24.40
2023-02-15T18:34:48.092Z,17.40
2023-02-15T18:39:56.899Z,20.83
2023-02-15T18:45:04.584Z,21.95
2023-02-15T18:50:11.060Z,19.33
2023-02-15T18:55:26.981Z,20.53
2023-02-15T19:00:34.904Z,23.15
2023-02-15T19:05:40.401Z,22.27
2023-02-15T19:10:49.534Z,18.17
2023-02-15T19:15:59.124Z,29.08
2023-02-15T19:21:05.289Z,20.93
2023-02-15T19:26:13.536Z,18.88
2023-02-15T19:31:19.238Z,20.40
2023-02-15T19:36:24.773Z,18.88
2023-02-15T19:41:36.598Z,17.45
2023-02-15T19:46:42.209Z,18.00
2023-02-15T19:51:50.935Z,17.70
2023-02-15T19:57:00.022Z,17.27
2023-02-15T20:02:13.515Z,19.70
2023-02-15T20:07:27.058Z,23.45
2023-02-15T20:12:35.930Z,19.87
2023-02-15T20:17:46.204Z,22.52
2023-02-15T20:22:55.836Z,23.53
2023-02-15T20:28:06.354Z,19.83
2023-02-15T20:33:11.910Z,21.73
2023-02-15T20:38:22.257Z,20.90
2023-02-15T20:43:30.456Z,18.90
2023-02-15T20:48:38.177Z,19.27
2023-02-15T20:53:43.684Z,23.08
2023-02-15T20:58:52.546Z,26.73
2023-02-15T21:03:58.697Z,21.20
2023-02-15T21:09:04.471Z,19.30
2023-02-15T21:14:19.719Z,21.10
2023-02-15T21:19:27.222Z,21.60
2023-02-15T21:24:33.845Z,19.63
2023-02-15T21:29:41.744Z,22.67
2023-02-15T21:34:47.013Z,18.70
2023-02-15T21:39:52.313Z,19.03
2023-02-15T21:45:12.899Z,20.95
2023-02-15T21:50:32.654Z,20.30
2023-02-15T21:55:38.158Z,21.93
2023-02-15T22:00:46.559Z,21.13
2023-02-15T22:05:52.104Z,20.43
2023-02-15T22:10:58.184Z,20.17
2023-02-15T22:16:06.472Z,21.73
2023-02-15T22:21:12.963Z,26.77
2023-02-15T22:26:27.004Z,23.15
2023-02-15T22:31:35.129Z,25.33
2023-02-15T22:36:41.819Z,24.27
2023-02-15T22:41:47.372Z,24.10
2023-02-15T22:46:55.889Z,19.77
2023-02-15T22:52:01.710Z,24.50
2023-02-15T22:57:07.401Z,24.40
2023-02-15T23:02:18.089Z,27.60
2023-02-15T23:07:23.339Z,22.15
2023-02-15T23:12:51.588Z,22.50
2023-02-15T23:17:59.520Z,26.40
2023-02-15T23:23:05.061Z,30.20
2023-02-15T23:28:20.703Z,21.40
2023-02-15T23:33:32.664Z,20.35
2023-02-15T23:38:38.166Z,27.17
2023-02-15T23:43:46.403Z,28.67
2023-02-15T23:48:54.887Z,22.17
2023-02-15T23:54:00.549Z,25.77
2023-02-15T23:59:06.213Z,27.05
